Time;durP1;ratioP1;P1;durP2;ratioP2;P2;SDS_P1;SDS_P2;PMS_P1;PMS_P2;Temp;Humidity;BMP_temperature;BMP_pressure;BME280_temperature;BME280_humidity;BME280_pressure;Samples;Min_cycle;Max_cycle;Signal;HPM_P1;HPM_P2
2022/05/19 00:02:03;;;;;;;;;;;;;;;;;;5036224;28;19916;-43
2022/05/19 00:04:28;;;;;;;;;;;;;;;;;;5035815;28;19916;-44
2022/05/19 00:06:53;;;;;;;;;;;;;;;;;;5035402;28;19928;-44
2022/05/19 00:09:19;;;;;;;;;;;;;;;;;;5035680;28;19917;-43
2022/05/19 00:11:44;;;;;;;;;;;;;;;;;;5035964;28;19920;-44
2022/05/19 00:14:09;;;;;;;;;;;;;;;;;;5036007;28;20003;-44
2022/05/19 00:16:34;;;;;;;;;;;;;;;;;;5035553;28;20438;-43
2022/05/19 00:18:59;;;;;;;;;;;;;;;;;;5035926;28;19955;-43
2022/05/19 00:21:24;;;;;;;;;;;;;;;;;;5035833;28;20321;-43
2022/05/19 00:23:51;;;;;;;;;;;;;;;;;;5033964;28;20227;-43
2022/05/19 00:26:16;;;;;;;;;;;;;;;;;;5035363;28;19959;-44
2022/05/19 00:28:42;;;;;;;;;;;;;;;;;;5035500;28;19921;-43
2022/05/19 00:31:07;;;;;;;;;;;;;;;;;;5035604;28;19909;-43
2022/05/19 00:33:33;;;;;;;;;;;;;;;;;;5034510;28;19909;-44
2022/05/19 00:35:58;;;;;;;;;;;;;;;;;;5035392;28;19917;-43
2022/05/19 00:38:23;;;;;;;;;;;;;;;;;;5035512;28;20397;-43
2022/05/19 00:40:48;;;;;;;;;;;;;;;;;;5035330;28;20000;-43
2022/05/19 00:43:13;;;;;;;;;;;;;;;;;;5035368;28;19992;-44
2022/05/19 00:45:38;;;;;;;;;;;;;;;;;;5035092;28;19920;-43
2022/05/19 00:48:04;;;;;;;;;;;;;;;;;;5035121;28;20363;-43
2022/05/19 00:50:29;;;;;;;;;;;;;;;;;;5035216;28;19939;-43
2022/05/19 00:52:54;;;;;;;;;;;;;;;;;;5035215;28;19910;-43
2022/05/19 00:55:19;;;;;;;;;;;;;;;;;;5034889;28;20380;-43
2022/05/19 00:57:44;;;;;;;;;;;;;;;;;;5035085;28;19979;-43
2022/05/19 01:00:09;;;;;;;;;;;;;;;;;;5035275;28;19959;-43
2022/05/19 01:02:35;;;;;;;;;;;;;;;;;;5035321;28;20008;-43
2022/05/19 01:05:00;;;;;;;;;;;;;;;;;;5034915;28;20342;-43
2022/05/19 01:07:25;;;;;;;;;;;;;;;;;;5034716;28;19995;-43
2022/05/19 01:09:50;;;;;;;;;;;;;;;;;;5035004;28;20261;-43
2022/05/19 01:12:15;;;;;;;;;;;;;;;;;;5034988;28;19913;-45
2022/05/19 01:14:40;;;;;;;;;;;;;;;;;;5034599;28;19925;-43
2022/05/19 01:17:05;;;;;;;;;;;;;;;;;;5034711;28;19910;-43
2022/05/19 01:19:30;;;;;;;;;;;;;;;;;;5034914;28;19909;-43
2022/05/19 01:21:55;;;;;;;;;;;;;;;;;;5034751;28;20003;-44
2022/05/19 01:24:21;;;;;;;;;;;;;;;;;;5034778;28;19979;-43
2022/05/19 01:26:46;;;;;;;;;;;;;;;;;;5034502;28;19917;-44
2022/05/19 01:29:11;;;;;;;;;;;;;;;;;;5034481;28;19975;-43
2022/05/19 01:31:36;;;;;;;;;;;;;;;;;;5034778;28;19913;-44
2022/05/19 01:34:02;;;;;;;;;;;;;;;;;;5034720;28;19913;-43
2022/05/19 01:36:27;;;;;;;;;;;;;;;;;;5034292;28;19920;-44
2022/05/19 01:38:52;;;;;;;;;;;;;;;;;;5034515;28;19910;-44
2022/05/19 01:41:17;;;;;;;;;;;;;;;;;;5034943;28;19909;-43
2022/05/19 01:43:42;;;;;;;;;;;;;;;;;;5034750;28;19909;-43
2022/05/19 01:46:07;;;;;;;;;;;;;;;;;;5038571;28;19913;-44
2022/05/19 01:48:33;;;;;;;;;;;;;;;;;;5038507;28;19909;-43
2022/05/19 01:50:58;;;;;;;;;;;;;;;;;;5038854;28;19913;-44
2022/05/19 01:53:23;;;;;;;;;;;;;;;;;;5038556;28;19909;-43
2022/05/19 01:55:48;;;;;;;;;;;;;;;;;;5038109;28;19914;-45
2022/05/19 01:58:13;;;;;;;;;;;;;;;;;;5038341;28;19909;-46
2022/05/19 02:00:39;;;;;;;;;;;;;;;;;;5038271;28;19909;-43
2022/05/19 02:03:04;;;;;;;;;;;;;;;;;;5037488;28;19975;-43
2022/05/19 02:05:31;;;;;;;;;;;;;;;;;;5036958;28;20364;-43
2022/05/19 02:07:56;;;;;;;;;;;;;;;;;;5037599;28;19925;-45
2022/05/19 02:10:21;;;;;;;;;;;;;;;;;;5037773;28;20268;-45
2022/05/19 02:12:47;;;;;;;;;;;;;;;;;;5038023;28;19909;-44
2022/05/19 02:15:13;;;;;;;;;;;;;;;;;;5037681;28;19917;-44
2022/05/19 02:17:38;;;;;;;;;;;;;;;;;;5038061;28;20369;-44
2022/05/19 02:20:04;;;;;;;;;;;;;;;;;;5037750;28;19909;-45
2022/05/19 02:22:29;;;;;;;;;;;;;;;;;;5037824;28;19983;-45
2022/05/19 02:24:54;;;;;;;;;;;;;;;;;;5037580;28;19913;-44
2022/05/19 02:27:19;;;;;;;;;;;;;;;;;;5036585;28;20356;-44
2022/05/19 02:29:44;;;;;;;;;;;;;;;;;;5037589;28;19920;-44
2022/05/19 02:32:09;;;;;;;;;;;;;;;;;;5037662;28;20392;-46
2022/05/19 02:34:34;;;;;;;;;;;;;;;;;;5037246;28;19909;-44
2022/05/19 02:36:59;;;;;;;;;;;;;;;;;;5037673;28;19913;-44
2022/05/19 02:39:24;;;;;;;;;;;;;;;;;;5037779;28;19917;-45
2022/05/19 02:41:49;;;;;;;;;;;;;;;;;;5037633;28;19910;-45
2022/05/19 02:44:15;;;;;;;;;;;;;;;;;;5037278;28;20066;-44
2022/05/19 02:46:40;;;;;;;;;;;;;;;;;;5037079;28;20000;-44
2022/05/19 02:49:05;;;;;;;;;;;;;;;;;;5037348;28;20374;-44
2022/05/19 02:51:30;;;;;;;;;;;;;;;;;;5036179;28;20330;-44
2022/05/19 02:53:55;;;;;;;;;;;;;;;;;;5037320;28;20268;-45
2022/05/19 02:56:20;;;;;;;;;;;;;;;;;;5035954;28;19913;-43
2022/05/19 02:58:46;;;;;;;;;;;;;;;;;;5037280;28;19980;-44
2022/05/19 03:01:11;;;;;;;;;;;;;;;;;;5037173;28;19915;-43
2022/05/19 03:03:36;;;;;;;;;;;;;;;;;;5037145;28;20003;-44
2022/05/19 03:06:01;;;;;;;;;;;;;;;;;;5043957;22;20357;-44
2022/05/19 03:08:26;;;;;;;;;;;;;;;;;;5036850;28;20380;-44
2022/05/19 03:10:51;;;;;;;;;;;;;;;;;;5036949;28;19909;-43
2022/05/19 03:13:16;;;;;;;;;;;;;;;;;;5036936;28;19913;-46
2022/05/19 03:15:41;;;;;;;;;;;;;;;;;;5036628;28;20287;-45
2022/05/19 03:18:07;;;;;;;;;;;;;;;;;;5036671;28;19917;-45
2022/05/19 03:20:32;;;;;;;;;;;;;;;;;;5035616;28;20331;-44
2022/05/19 03:22:57;;;;;;;;;;;;;;;;;;5036926;28;20000;-45
2022/05/19 03:25:23;;;;;;;;;;;;;;;;;;5036590;28;19971;-43
2022/05/19 03:27:48;;;;;;;;;;;;;;;;;;5036810;28;19913;-44
2022/05/19 03:30:13;;;;;;;;;;;;;;;;;;5036758;28;20283;-44
2022/05/19 03:32:38;;;;;;;;;;;;;;;;;;5036665;28;19936;-43
2022/05/19 03:35:03;;;;;;;;;;;;;;;;;;5036255;28;20320;-43
2022/05/19 03:37:28;;;;;;;;;;;;;;;;;;5036317;28;19983;-44
2022/05/19 03:39:53;;;;;;;;;;;;;;;;;;5036513;28;19909;-43
2022/05/19 03:42:18;;;;;;;;;;;;;;;;;;5036431;28;19963;-43
2022/05/19 03:44:43;;;;;;;;;;;;;;;;;;5036337;28;19909;-43
2022/05/19 03:47:09;;;;;;;;;;;;;;;;;;5036085;28;19916;-42
2022/05/19 03:49:34;;;;;;;;;;;;;;;;;;5036231;28;19917;-43
2022/05/19 03:51:59;;;;;;;;;;;;;;;;;;5036320;28;19917;-44
2022/05/19 03:54:24;;;;;;;;;;;;;;;;;;5036128;28;19917;-43
2022/05/19 03:56:49;;;;;;;;;;;;;;;;;;5035966;28;19910;-43
2022/05/19 03:59:14;;;;;;;;;;;;;;;;;;5036179;28;19918;-44
2022/05/19 04:01:42;;;;;;;;;;;;;;;;;;5036266;28;19960;-43
2022/05/19 04:04:07;;;;;;;;;;;;;;;;;;5035919;28;19909;-43
2022/05/19 04:06:34;;;;;;;;;;;;;;;;;;5035642;28;20375;-43
2022/05/19 04:08:59;;;;;;;;;;;;;;;;;;5035693;28;19925;-42
2022/05/19 04:11:24;;;;;;;;;;;;;;;;;;5034630;28;19928;-43
2022/05/19 04:13:49;;;;;;;;;;;;;;;;;;5035730;28;19929;-43
2022/05/19 04:16:14;;;;;;;;;;;;;;;;;;5035881;28;19939;-43
2022/05/19 04:18:39;;;;;;;;;;;;;;;;;;5035627;28;19917;-44
2022/05/19 04:21:04;;;;;;;;;;;;;;;;;;5035896;28;20253;-43
2022/05/19 04:23:30;;;;;;;;;;;;;;;;;;5035707;28;19911;-44
2022/05/19 04:25:55;;;;;;;;;;;;;;;;;;5035275;28;19913;-43
2022/05/19 04:28:20;;;;;;;;;;;;;;;;;;5035603;28;19977;-44
2022/05/19 04:30:45;;;;;;;;;;;;;;;;;;5035302;28;20319;-43
2022/05/19 04:33:10;;;;;;;;;;;;;;;;;;5035440;28;19916;-43
2022/05/19 04:35:35;;;;;;;;;;;;;;;;;;5035038;28;19917;-44
2022/05/19 04:38:00;;;;;;;;;;;;;;;;;;5035539;28;19992;-42
2022/05/19 04:40:26;;;;;;;;;;;;;;;;;;5035289;28;19915;-43
2022/05/19 04:42:51;;;;;;;;;;;;;;;;;;5035289;28;19913;-43
2022/05/19 04:45:16;;;;;;;;;;;;;;;;;;5034951;28;19913;-44
2022/05/19 04:47:41;;;;;;;;;;;;;;;;;;5035179;28;20382;-43
2022/05/19 04:50:07;;;;;;;;;;;;;;;;;;5035017;28;20414;-43
2022/05/19 04:52:32;;;;;;;;;;;;;;;;;;5035236;28;19916;-43
2022/05/19 04:54:57;;;;;;;;;;;;;;;;;;5034845;28;20410;-43
2022/05/19 04:57:22;;;;;;;;;;;;;;;;;;5034940;28;19932;-43
2022/05/19 04:59:47;;;;;;;;;;;;;;;;;;5035104;28;19905;-46
2022/05/19 05:02:12;;;;;;;;;;;;;;;;;;5035099;28;19916;-43
2022/05/19 05:04:38;;;;;;;;;;;;;;;;;;5034746;28;19928;-44
2022/05/19 05:07:03;;;;;;;;;;;;;;;;;;5034644;28;20008;-43
2022/05/19 05:09:28;;;;;;;;;;;;;;;;;;5034782;28;20388;-46
2022/05/19 05:11:53;;;;;;;;;;;;;;;;;;5034911;28;20007;-44
2022/05/19 05:14:18;;;;;;;;;;;;;;;;;;5034725;28;19909;-45
2022/05/19 05:16:43;;;;;;;;;;;;;;;;;;5034541;28;20375;-45
2022/05/19 05:19:08;;;;;;;;;;;;;;;;;;5034395;28;20399;-43
2022/05/19 05:21:33;;;;;;;;;;;;;;;;;;5034829;28;20371;-43
2022/05/19 05:23:58;;;;;;;;;;;;;;;;;;5033172;28;20347;-43
2022/05/19 05:26:24;;;;;;;;;;;;;;;;;;5028604;28;19914;-44
2022/05/19 05:28:49;;;;;;;;;;;;;;;;;;5014907;28;19913;-50
2022/05/19 05:31:14;;;;;;;;;;;;;;;;;;5011766;28;19909;-48
2022/05/19 05:33:39;;;;;;;;;;;;;;;;;;5037414;28;19968;-48
2022/05/19 05:36:04;;;;;;;;;;;;;;;;;;5030950;28;19917;-49
2022/05/19 05:38:29;;;;;;;;;;;;;;;;;;5020844;28;19909;-49
2022/05/19 05:40:54;;;;;;;;;;;;;;;;;;5025778;28;19967;-49
2022/05/19 05:43:19;;;;;;;;;;;;;;;;;;5030081;28;19976;-50
2022/05/19 05:45:45;;;;;;;;;;;;;;;;;;5031358;28;20017;-50
2022/05/19 05:48:10;;;;;;;;;;;;;;;;;;5018013;28;20369;-49
2022/05/19 05:50:35;;;;;;;;;;;;;;;;;;5011550;28;20011;-49
2022/05/19 05:53:00;;;;;;;;;;;;;;;;;;5025076;28;19913;-50
2022/05/19 05:55:25;;;;;;;;;;;;;;;;;;5022444;28;19921;-48
2022/05/19 05:57:50;;;;;;;;;;;;;;;;;;5025868;28;19975;-49
2022/05/19 06:00:15;;;;;;;;;;;;;;;;;;5008407;28;20449;-50
2022/05/19 06:02:40;;;;;;;;;;;;;;;;;;5001509;28;20628;-50
2022/05/19 06:05:06;;;;;;;;;;;;;;;;;;5007225;28;19961;-50
2022/05/19 06:07:31;;;;;;;;;;;;;;;;;;5003060;28;20071;-50
2022/05/19 06:09:56;;;;;;;;;;;;;;;;;;4990674;28;19929;-50
2022/05/19 06:12:21;;;;;;;;;;;;;;;;;;4976295;28;19921;-48
2022/05/19 06:14:47;;;;;;;;;;;;;;;;;;4964242;28;19921;-49
2022/05/19 06:17:12;;;;;;;;;;;;;;;;;;4962632;28;19922;-50
2022/05/19 06:19:37;;;;;;;;;;;;;;;;;;4880327;28;20588;-48
2022/05/19 06:22:02;;;;;;;;;;;;;;;;;;4845418;28;20561;-49
2022/05/19 06:24:27;;;;;;;;;;;;;;;;;;4776775;28;20387;-47
2022/05/19 06:26:52;;;;;;;;;;;;;;;;;;4646500;28;20135;-48
2022/05/19 06:29:18;;;;;;;;;;;;;;;;;;4672034;28;21741;-50
2022/05/19 06:31:43;;;;;;;;;;;;;;;;;;4719950;28;20588;-50
2022/05/19 06:34:10;;;;;;;;;;;;;;;;;;4733926;28;24790;-50
2022/05/19 06:36:35;;;;;;;;;;;;;;;;;;4758658;28;27815;-47
2022/05/19 06:39:00;;;;;;;;;;;;;;;;;;4806671;28;20619;-49
2022/05/19 06:44:09;;;;;;;;;;;;;;;;;;4818303;28;21223;-48
2022/05/19 06:46:34;;;;;;;;;;;;;;;;;;4813598;28;20478;-50
2022/05/19 06:49:02;;;;;;;;;;;;;;;;;;4803676;28;20589;-48
2022/05/19 06:51:27;;;;;;;;;;;;;;;;;;4804272;28;24659;-48
2022/05/19 06:53:52;;;;;;;;;;;;;;;;;;4798271;28;21559;-48
2022/05/19 06:56:17;;;;;;;;;;;;;;;;;;4788143;28;19921;-50
2022/05/19 06:58:43;;;;;;;;;;;;;;;;;;4826224;28;19947;-50
2022/05/19 07:01:08;;;;;;;;;;;;;;;;;;4777885;28;20644;-49
2022/05/19 07:03:33;;;;;;;;;;;;;;;;;;4799504;28;19917;-47
2022/05/19 07:05:58;;;;;;;;;;;;;;;;;;4801953;28;19921;-47
2022/05/19 07:08:23;;;;;;;;;;;;;;;;;;4759581;28;22499;-53
2022/05/19 07:10:49;;;;;;;;;;;;;;;;;;4710228;28;35109;-49
2022/05/19 07:13:14;;;;;;;;;;;;;;;;;;4734279;28;20552;-47
2022/05/19 07:15:39;;;;;;;;;;;;;;;;;;4734586;28;38665;-51
2022/05/19 07:18:04;;;;;;;;;;;;;;;;;;4612499;28;24621;-48
2022/05/19 07:20:47;;;;;;;;;;;;;;;;;;4556499;28;24245;-47
2022/05/19 07:23:12;;;;;;;;;;;;;;;;;;4350160;28;29957;-49
2022/05/19 07:25:40;;;;;;;;;;;;;;;;;;4348548;28;40380;-49
2022/05/19 07:28:05;;;;;;;;;;;;;;;;;;4578271;28;36021;-48
2022/05/19 07:30:30;;;;;;;;;;;;;;;;;;4662838;28;21674;-48
2022/05/19 07:32:55;;;;;;;;;;;;;;;;;;4720449;28;32492;-49
2022/05/19 07:35:20;;;;;;;;;;;;;;;;;;4756728;28;28946;-49
2022/05/19 07:37:45;;;;;;;;;;;;;;;;;;4715932;28;43041;-50
2022/05/19 07:40:11;;;;;;;;;;;;;;;;;;4737386;28;26087;-51
2022/05/19 07:42:36;;;;;;;;;;;;;;;;;;4713464;28;24087;-49
2022/05/19 07:45:01;;;;;;;;;;;;;;;;;;4702063;28;20848;-49
2022/05/19 07:47:29;;;;;;;;;;;;;;;;;;4747350;28;19922;-49
2022/05/19 07:49:56;;;;;;;;;;;;;;;;;;4733213;28;34080;-50
2022/05/19 07:52:21;;;;;;;;;;;;;;;;;;4749121;28;23861;-51
2022/05/19 07:54:46;;;;;;;;;;;;;;;;;;4754020;28;19999;-48
2022/05/19 07:57:12;;;;;;;;;;;;;;;;;;4747026;28;43779;-49
2022/05/19 07:59:37;;;;;;;;;;;;;;;;;;4736064;28;22086;-50
2022/05/19 08:02:02;;;;;;;;;;;;;;;;;;4721902;28;19921;-49
2022/05/19 08:04:27;;;;;;;;;;;;;;;;;;4697476;28;35930;-49
2022/05/19 08:06:52;;;;;;;;;;;;;;;;;;4678569;28;35525;-52
2022/05/19 08:12:01;;;;;;;;;;;;;;;;;;4459042;28;20693;-49
2022/05/19 08:17:10;;;;;;;;;;;;;;;;;;4653800;28;31874;-47
2022/05/19 08:19:36;;;;;;;;;;;;;;;;;;4734863;28;19955;-48
2022/05/19 08:22:01;;;;;;;;;;;;;;;;;;4735530;28;19925;-50
2022/05/19 08:24:26;;;;;;;;;;;;;;;;;;4739375;28;21174;-47
2022/05/19 08:26:52;;;;;;;;;;;;;;;;;;4680376;28;21557;-47
2022/05/19 08:29:19;;;;;;;;;;;;;;;;;;4507367;28;20414;-49
2022/05/19 08:31:44;;;;;;;;;;;;;;;;;;4471439;28;22696;-48
2022/05/19 08:34:09;;;;;;;;;;;;;;;;;;4544058;28;25679;-49
2022/05/19 08:36:38;;;;;;;;;;;;;;;;;;4665962;28;20139;-50
2022/05/19 08:39:03;;;;;;;;;;;;;;;;;;4748069;28;25619;-51
2022/05/19 08:41:28;;;;;;;;;;;;;;;;;;4732768;28;29445;-52
2022/05/19 08:43:53;;;;;;;;;;;;;;;;;;4736180;28;31970;-50
2022/05/19 08:46:19;;;;;;;;;;;;;;;;;;4776143;28;26989;-49
2022/05/19 08:48:44;;;;;;;;;;;;;;;;;;4744480;28;19999;-48
2022/05/19 08:51:10;;;;;;;;;;;;;;;;;;4701560;28;26266;-48
2022/05/19 08:53:35;;;;;;;;;;;;;;;;;;4714832;28;37764;-49
2022/05/19 08:56:00;;;;;;;;;;;;;;;;;;4740496;28;36024;-47
2022/05/19 08:58:27;;;;;;;;;;;;;;;;;;4720488;28;38452;-48
2022/05/19 09:00:52;;;;;;;;;;;;;;;;;;4721846;28;34339;-48
2022/05/19 09:03:18;;;;;;;;;;;;;;;;;;4708529;28;28168;-49
2022/05/19 09:05:43;;;;;;;;;;;;;;;;;;4704944;28;27714;-48
2022/05/19 09:08:08;;;;;;;;;;;;;;;;;;4686018;28;36274;-49
2022/05/19 09:10:33;;;;;;;;;;;;;;;;;;4715112;28;34281;-51
2022/05/19 09:12:58;;;;;;;;;;;;;;;;;;4666661;28;38032;-48
2022/05/19 09:15:23;;;;;;;;;;;;;;;;;;4700531;28;30785;-48
2022/05/19 09:17:48;;;;;;;;;;;;;;;;;;4703661;28;27022;-49
2022/05/19 09:20:13;;;;;;;;;;;;;;;;;;4719629;28;23131;-49
2022/05/19 09:22:40;;;;;;;;;;;;;;;;;;4702509;28;21898;-47
2022/05/19 09:25:05;;;;;;;;;;;;;;;;;;4710532;28;29903;-50
2022/05/19 09:27:30;;;;;;;;;;;;;;;;;;4719106;28;34676;-46
2022/05/19 09:29:55;;;;;;;;;;;;;;;;;;4763853;28;35465;-51
2022/05/19 09:32:20;;;;;;;;;;;;;;;;;;4760896;28;25780;-48
2022/05/19 09:34:47;;;;;;;;;;;;;;;;;;4741448;28;23617;-50
2022/05/19 09:37:12;;;;;;;;;;;;;;;;;;4782056;28;28617;-48
2022/05/19 09:39:37;;;;;;;;;;;;;;;;;;4777535;28;19921;-48
2022/05/19 09:42:02;;;;;;;;;;;;;;;;;;4771115;28;34409;-49
2022/05/19 09:44:27;;;;;;;;;;;;;;;;;;4762147;28;32972;-49
2022/05/19 09:46:52;;;;;;;;;;;;;;;;;;4799404;28;23908;-51
2022/05/19 09:49:17;;;;;;;;;;;;;;;;;;4767907;28;32722;-50
2022/05/19 09:51:42;;;;;;;;;;;;;;;;;;4783086;28;29092;-47
2022/05/19 09:54:12;;;;;;;;;;;;;;;;;;4735172;28;27833;-53
2022/05/19 09:56:37;;;;;;;;;;;;;;;;;;4747588;28;30678;-50
2022/05/19 09:59:02;;;;;;;;;;;;;;;;;;4726567;28;26556;-48
2022/05/19 10:01:27;;;;;;;;;;;;;;;;;;4753525;28;19925;-48
2022/05/19 10:03:53;;;;;;;;;;;;;;;;;;4739676;28;30126;-49
2022/05/19 10:06:18;;;;;;;;;;;;;;;;;;4729997;28;28750;-45
2022/05/19 10:08:43;;;;;;;;;;;;;;;;;;4730370;28;42928;-47
2022/05/19 10:11:08;;;;;;;;;;;;;;;;;;4722522;28;36616;-48
2022/05/19 10:13:33;;;;;;;;;;;;;;;;;;4708750;28;27620;-50
2022/05/19 10:15:58;;;;;;;;;;;;;;;;;;4725822;28;19928;-47
2022/05/19 10:18:24;;;;;;;;;;;;;;;;;;4760423;28;31865;-48
2022/05/19 10:20:49;;;;;;;;;;;;;;;;;;4772615;28;33498;-49
2022/05/19 10:23:14;;;;;;;;;;;;;;;;;;4759851;28;37049;-49
2022/05/19 10:25:39;;;;;;;;;;;;;;;;;;4765903;28;34319;-48
2022/05/19 10:31:04;;;;;;;;;;;;;;;;;;4763772;28;31151;-45
2022/05/19 10:33:29;;;;;;;;;;;;;;;;;;4736903;28;31264;-46
2022/05/19 10:35:54;;;;;;;;;;;;;;;;;;4704141;28;36334;-47
2022/05/19 10:38:20;;;;;;;;;;;;;;;;;;4645033;28;31609;-45
2022/05/19 10:40:46;;;;;;;;;;;;;;;;;;4682152;28;30385;-50
2022/05/19 10:43:11;;;;;;;;;;;;;;;;;;4651001;28;30940;-47
2022/05/19 10:45:36;;;;;;;;;;;;;;;;;;4732587;28;22186;-48
2022/05/19 10:48:01;;;;;;;;;;;;;;;;;;4759184;28;24845;-44
2022/05/19 10:50:26;;;;;;;;;;;;;;;;;;4758034;28;24819;-46
2022/05/19 10:52:54;;;;;;;;;;;;;;;;;;4762713;28;24741;-46
2022/05/19 10:55:19;;;;;;;;;;;;;;;;;;4733821;28;29467;-47
2022/05/19 10:57:44;;;;;;;;;;;;;;;;;;4718716;28;23342;-45
2022/05/19 11:00:09;;;;;;;;;;;;;;;;;;4719607;28;19921;-45
2022/05/19 11:02:34;;;;;;;;;;;;;;;;;;4723699;28;22577;-47
2022/05/19 11:04:59;;;;;;;;;;;;;;;;;;4751194;28;24691;-48
2022/05/19 11:07:25;;;;;;;;;;;;;;;;;;4739957;28;20633;-49
2022/05/19 11:09:50;;;;;;;;;;;;;;;;;;4750183;28;30125;-50
2022/05/19 11:12:15;;;;;;;;;;;;;;;;;;4762061;28;19921;-50
2022/05/19 11:14:41;;;;;;;;;;;;;;;;;;4769538;28;23357;-46
2022/05/19 11:17:06;;;;;;;;;;;;;;;;;;4772639;28;29399;-45
2022/05/19 11:19:31;;;;;;;;;;;;;;;;;;4756196;28;25281;-44
2022/05/19 11:21:56;;;;;;;;;;;;;;;;;;4772549;28;21028;-47
2022/05/19 11:24:24;;;;;;;;;;;;;;;;;;4794154;28;23539;-46
2022/05/19 11:26:49;;;;;;;;;;;;;;;;;;4777558;28;24819;-46
2022/05/19 11:29:14;;;;;;;;;;;;;;;;;;4741557;28;23701;-45
2022/05/19 11:31:39;;;;;;;;;;;;;;;;;;4713237;28;29518;-46
2022/05/19 11:34:04;;;;;;;;;;;;;;;;;;4710635;28;24375;-46
2022/05/19 11:36:30;;;;;;;;;;;;;;;;;;4716302;28;31175;-45
2022/05/19 11:38:55;;;;;;;;;;;;;;;;;;4712967;28;33245;-47
2022/05/19 11:41:20;;;;;;;;;;;;;;;;;;4742558;28;32878;-47
2022/05/19 11:43:46;;;;;;;;;;;;;;;;;;4771526;28;32222;-47
2022/05/19 11:46:11;;;;;;;;;;;;;;;;;;4768238;28;23691;-48
2022/05/19 11:56:48;;;;;;;;;;;;;;;;;;4759729;28;23639;-45
2022/05/19 11:59:13;;;;;;;;;;;;;;;;;;4747689;28;25607;-44
2022/05/19 12:01:39;;;;;;;;;;;;;;;;;;4747905;28;19921;-47
2022/05/19 12:04:04;;;;;;;;;;;;;;;;;;4752717;28;26858;-48
2022/05/19 12:06:29;;;;;;;;;;;;;;;;;;4744961;28;22345;-47
2022/05/19 12:08:54;;;;;;;;;;;;;;;;;;4739380;28;32605;-46
2022/05/19 12:11:19;;;;;;;;;;;;;;;;;;4741941;28;29663;-44
2022/05/19 12:13:44;;;;;;;;;;;;;;;;;;4738146;28;25932;-47
2022/05/19 12:16:10;;;;;;;;;;;;;;;;;;4748240;28;32843;-46
2022/05/19 12:18:35;;;;;;;;;;;;;;;;;;4729510;28;27205;-46
2022/05/19 12:21:00;;;;;;;;;;;;;;;;;;4730945;28;23938;-45
2022/05/19 12:23:26;;;;;;;;;;;;;;;;;;4714734;28;24903;-47
2022/05/19 12:25:51;;;;;;;;;;;;;;;;;;4730238;28;24235;-48
2022/05/19 12:28:16;;;;;;;;;;;;;;;;;;4744972;28;32903;-46
2022/05/19 12:33:25;;;;;;;;;;;;;;;;;;4792734;28;22378;-48
2022/05/19 12:35:51;;;;;;;;;;;;;;;;;;4782314;28;25068;-49
2022/05/19 12:38:18;;;;;;;;;;;;;;;;;;4769375;28;33513;-48
2022/05/19 12:40:43;;;;;;;;;;;;;;;;;;4771841;28;32276;-47
2022/05/19 12:43:08;;;;;;;;;;;;;;;;;;4774563;28;29137;-47
2022/05/19 12:45:34;;;;;;;;;;;;;;;;;;4775010;28;34590;-47
2022/05/19 12:47:59;;;;;;;;;;;;;;;;;;4766146;28;44265;-47
2022/05/19 12:50:25;;;;;;;;;;;;;;;;;;4790567;28;27993;-47
2022/05/19 12:52:50;;;;;;;;;;;;;;;;;;4786682;28;26170;-52
2022/05/19 12:55:15;;;;;;;;;;;;;;;;;;4792629;28;24340;-49
2022/05/19 12:57:40;;;;;;;;;;;;;;;;;;4794638;28;25687;-49
2022/05/19 13:00:06;;;;;;;;;;;;;;;;;;4782294;28;29952;-48
2022/05/19 13:02:32;;;;;;;;;;;;;;;;;;4768389;28;30277;-48
2022/05/19 13:04:58;;;;;;;;;;;;;;;;;;4775043;28;24989;-47
2022/05/19 13:07:23;;;;;;;;;;;;;;;;;;4781883;28;39411;-49
2022/05/19 13:09:48;;;;;;;;;;;;;;;;;;4751418;28;21210;-48
2022/05/19 13:12:13;;;;;;;;;;;;;;;;;;4695196;28;22549;-47
2022/05/19 13:14:40;;;;;;;;;;;;;;;;;;4746586;28;20386;-48
2022/05/19 13:17:05;;;;;;;;;;;;;;;;;;4785062;28;19921;-46
2022/05/19 13:19:30;;;;;;;;;;;;;;;;;;4821912;28;22727;-49
2022/05/19 13:21:55;;;;;;;;;;;;;;;;;;4824364;28;25880;-47
2022/05/19 13:24:20;;;;;;;;;;;;;;;;;;4853214;28;19924;-47
2022/05/19 13:26:46;;;;;;;;;;;;;;;;;;4869522;28;19928;-49
2022/05/19 13:31:56;;;;;;;;;;;;;;;;;;4854431;28;23225;-46
2022/05/19 13:34:21;;;;;;;;;;;;;;;;;;4845428;28;20047;-46
2022/05/19 13:36:46;;;;;;;;;;;;;;;;;;4853104;28;20417;-48
2022/05/19 13:39:12;;;;;;;;;;;;;;;;;;4869130;28;21289;-47
2022/05/19 13:41:37;;;;;;;;;;;;;;;;;;4857255;28;20978;-46
2022/05/19 13:44:02;;;;;;;;;;;;;;;;;;4880815;28;20430;-48
2022/05/19 13:46:27;;;;;;;;;;;;;;;;;;4887658;28;19975;-48
2022/05/19 13:48:53;;;;;;;;;;;;;;;;;;4860530;28;19921;-50
2022/05/19 13:51:18;;;;;;;;;;;;;;;;;;4874011;28;19932;-48
2022/05/19 13:53:43;;;;;;;;;;;;;;;;;;4872315;28;20257;-49
2022/05/19 13:56:08;;;;;;;;;;;;;;;;;;4834127;28;20813;-49
2022/05/19 13:58:33;;;;;;;;;;;;;;;;;;4825364;28;20591;-49
2022/05/19 14:00:58;;;;;;;;;;;;;;;;;;4803258;28;22327;-49
2022/05/19 14:03:23;;;;;;;;;;;;;;;;;;4787534;28;21129;-50
2022/05/19 14:05:49;;;;;;;;;;;;;;;;;;4861102;28;19921;-49
2022/05/19 14:08:14;;;;;;;;;;;;;;;;;;4877240;28;19924;-48
2022/05/19 14:10:39;;;;;;;;;;;;;;;;;;4911773;28;20686;-49
2022/05/19 14:13:04;;;;;;;;;;;;;;;;;;4947898;28;19921;-50
2022/05/19 14:15:30;;;;;;;;;;;;;;;;;;4951026;28;20505;-50
2022/05/19 14:17:55;;;;;;;;;;;;;;;;;;4955411;28;20740;-49
2022/05/19 14:20:20;;;;;;;;;;;;;;;;;;4954648;28;19923;-47
2022/05/19 14:22:45;;;;;;;;;;;;;;;;;;4970869;28;20095;-47
2022/05/19 14:25:11;;;;;;;;;;;;;;;;;;4967746;28;19921;-49
2022/05/19 14:27:36;;;;;;;;;;;;;;;;;;4950422;28;19929;-46
2022/05/19 14:30:01;;;;;;;;;;;;;;;;;;4968331;28;19929;-51
2022/05/19 14:32:26;;;;;;;;;;;;;;;;;;4955829;28;21928;-49
2022/05/19 14:34:51;;;;;;;;;;;;;;;;;;4945636;28;20009;-49
2022/05/19 14:37:16;;;;;;;;;;;;;;;;;;4953150;28;19917;-49
2022/05/19 14:39:41;;;;;;;;;;;;;;;;;;4939638;28;19928;-47
2022/05/19 14:44:51;;;;;;;;;;;;;;;;;;4952311;28;19913;-47
2022/05/19 14:47:16;;;;;;;;;;;;;;;;;;4952509;28;19995;-46
2022/05/19 14:49:41;;;;;;;;;;;;;;;;;;4956993;28;19956;-47
2022/05/19 14:52:06;;;;;;;;;;;;;;;;;;4963569;28;20028;-49
2022/05/19 14:54:31;;;;;;;;;;;;;;;;;;4982243;28;19922;-47
2022/05/19 14:56:56;;;;;;;;;;;;;;;;;;4993758;28;19928;-47
2022/05/19 14:59:21;;;;;;;;;;;;;;;;;;5011227;28;19921;-47
2022/05/19 15:01:46;;;;;;;;;;;;;;;;;;4973786;28;19931;-47
2022/05/19 15:04:12;;;;;;;;;;;;;;;;;;4997945;28;19953;-44
2022/05/19 15:06:37;;;;;;;;;;;;;;;;;;4992417;22;19926;-47
2022/05/19 15:09:02;;;;;;;;;;;;;;;;;;5001788;28;20377;-47
2022/05/19 15:11:27;;;;;;;;;;;;;;;;;;5006388;28;19925;-49
2022/05/19 15:13:52;;;;;;;;;;;;;;;;;;5009269;28;20285;-49
2022/05/19 15:16:18;;;;;;;;;;;;;;;;;;5004096;28;20004;-47
2022/05/19 15:18:43;;;;;;;;;;;;;;;;;;4994847;28;19921;-47
2022/05/19 15:21:08;;;;;;;;;;;;;;;;;;5008736;28;19928;-48
2022/05/19 15:23:36;;;;;;;;;;;;;;;;;;5003313;28;19913;-47
2022/05/19 15:26:01;;;;;;;;;;;;;;;;;;5005297;28;19928;-47
2022/05/19 15:28:27;;;;;;;;;;;;;;;;;;4994767;28;19920;-47
2022/05/19 15:30:52;;;;;;;;;;;;;;;;;;5009954;28;19925;-46
2022/05/19 15:33:17;;;;;;;;;;;;;;;;;;5006003;28;19917;-47
2022/05/19 15:35:42;;;;;;;;;;;;;;;;;;5012852;28;20028;-48
2022/05/19 15:38:07;;;;;;;;;;;;;;;;;;5009974;28;19936;-47
2022/05/19 15:40:32;;;;;;;;;;;;;;;;;;5010755;28;19914;-48
2022/05/19 15:42:58;;;;;;;;;;;;;;;;;;5011537;28;19924;-47
2022/05/19 15:45:23;;;;;;;;;;;;;;;;;;5008426;28;19921;-47
2022/05/19 15:47:48;;;;;;;;;;;;;;;;;;5004538;28;19921;-47
2022/05/19 15:50:13;;;;;;;;;;;;;;;;;;5013600;28;19917;-47
2022/05/19 15:52:38;;;;;;;;;;;;;;;;;;5012457;28;19920;-47
2022/05/19 15:55:03;;;;;;;;;;;;;;;;;;5013040;28;19921;-47
2022/05/19 15:57:28;;;;;;;;;;;;;;;;;;5009151;28;19922;-47
2022/05/19 15:59:54;;;;;;;;;;;;;;;;;;5012978;28;19928;-46
2022/05/19 16:02:19;;;;;;;;;;;;;;;;;;5014645;28;19936;-47
2022/05/19 16:04:45;;;;;;;;;;;;;;;;;;5014665;28;19913;-47
2022/05/19 16:07:10;;;;;;;;;;;;;;;;;;5013851;28;19922;-46
2022/05/19 16:09:35;;;;;;;;;;;;;;;;;;5013258;28;20016;-46
2022/05/19 16:12:01;;;;;;;;;;;;;;;;;;5011170;28;20397;-44
2022/05/19 16:14:28;;;;;;;;;;;;;;;;;;5010981;28;19910;-45
2022/05/19 16:16:54;;;;;;;;;;;;;;;;;;5011841;28;19920;-44
2022/05/19 16:19:19;;;;;;;;;;;;;;;;;;5014844;28;19995;-43
2022/05/19 16:21:44;;;;;;;;;;;;;;;;;;5015332;28;19944;-44
2022/05/19 16:24:09;;;;;;;;;;;;;;;;;;5014712;28;19941;-43
2022/05/19 16:26:34;;;;;;;;;;;;;;;;;;5014847;28;19922;-43
2022/05/19 16:28:59;;;;;;;;;;;;;;;;;;5015332;28;19914;-43
2022/05/19 16:31:24;;;;;;;;;;;;;;;;;;5030879;28;19919;-44
2022/05/19 16:33:49;;;;;;;;;;;;;;;;;;5015681;28;19921;-43
2022/05/19 16:36:15;;;;;;;;;;;;;;;;;;5014936;28;19913;-44
2022/05/19 16:38:40;;;;;;;;;;;;;;;;;;5015789;28;20296;-44
2022/05/19 16:41:05;;;;;;;;;;;;;;;;;;5015594;28;20437;-44
2022/05/19 16:43:30;;;;;;;;;;;;;;;;;;5015649;28;19988;-44
2022/05/19 16:45:55;;;;;;;;;;;;;;;;;;5015618;28;19910;-44
2022/05/19 16:48:20;;;;;;;;;;;;;;;;;;5015445;28;20293;-43
2022/05/19 16:50:46;;;;;;;;;;;;;;;;;;5015563;28;19914;-44
2022/05/19 16:53:11;;;;;;;;;;;;;;;;;;5012848;28;19992;-44
2022/05/19 16:58:20;;;;;;;;;;;;;;;;;;5001150;28;19920;-44
2022/05/19 17:00:45;;;;;;;;;;;;;;;;;;4998662;28;19922;-44
2022/05/19 17:03:10;;;;;;;;;;;;;;;;;;4982096;28;19917;-44